Rechercher aéroport 
image banner adimage banner adimage banner ad
image banner ad

1PS0 - Ickes

Situé à Osterburg, United States

ICAO - 1PS0, IATA -

Données fournies par Airmate  

Information générale

Coordonnées: N40°11'3" W78°33'32"
Élévation : 1320 feet MSL.
Variation magnétique : -10° East
Voir autres Aéroports à Pennsylvania

Données opérationnelles

Special qualification required
Heure actuelle UTC:
Heure actuelle locale:
Météo à : KHMZ - Bedford County ( 12 km )
METAR: KHMZ 150555Z AUTO 00000KT 1/4SM FG OVC002 13/13 A2986 RMK AO2 60001 T01310127 10195 20129
Voir NOTAMs / SUP AIP / TFR affectant cet aéroport [VIEW]
Fréquences de communication: [VIEW]

Pistes:

Identifiant RWYQFULongueur (ft)Largeur (ft)SurfaceLDA (ft)
102064150GRASS
282064150GRASS

Coordonnées de l'aéroport

Adresse: Osterburg United States

Vue satellite de 1PS0